sensor_id;sensor_type;location;lat;lon;timestamp;P1;durP1;ratioP1;P2;durP2;ratioP2
84121;SDS011;74217;51.106;17.084;2024-03-29T00:00:19;4.82;;;4.28;;
84121;SDS011;74217;51.106;17.084;2024-03-29T00:06:09;8.02;;;4.90;;
84121;SDS011;74217;51.106;17.084;2024-03-29T00:08:54;4.90;;;4.25;;
84121;SDS011;74217;51.106;17.084;2024-03-29T00:11:38;4.85;;;3.95;;
84121;SDS011;74217;51.106;17.084;2024-03-29T00:18:04;5.15;;;3.88;;
84121;SDS011;74217;51.106;17.084;2024-03-29T00:20:49;6.03;;;4.63;;
84121;SDS011;74217;51.106;17.084;2024-03-29T00:23:34;5.25;;;4.03;;
84121;SDS011;74217;51.106;17.084;2024-03-29T00:26:18;5.50;;;4.07;;
84121;SDS011;74217;51.106;17.084;2024-03-29T00:29:03;7.53;;;5.18;;
84121;SDS011;74217;51.106;17.084;2024-03-29T00:31:47;5.72;;;4.80;;
84121;SDS011;74217;51.106;17.084;2024-03-29T00:34:32;6.45;;;4.00;;
84121;SDS011;74217;51.106;17.084;2024-03-29T00:37:16;6.32;;;4.95;;
84121;SDS011;74217;51.106;17.084;2024-03-29T00:42:47;4.72;;;3.53;;
84121;SDS011;74217;51.106;17.084;2024-03-29T00:45:31;6.75;;;4.88;;
84121;SDS011;74217;51.106;17.084;2024-03-29T00:48:16;7.20;;;6.50;;
84121;SDS011;74217;51.106;17.084;2024-03-29T00:51:04;7.13;;;4.72;;
84121;SDS011;74217;51.106;17.084;2024-03-29T00:53:48;5.32;;;4.47;;
84121;SDS011;74217;51.106;17.084;2024-03-29T00:56:33;5.97;;;3.83;;
84121;SDS011;74217;51.106;17.084;2024-03-29T00:59:17;5.15;;;4.30;;
84121;SDS011;74217;51.106;17.084;2024-03-29T01:02:02;5.95;;;4.57;;
84121;SDS011;74217;51.106;17.084;2024-03-29T01:04:47;5.75;;;3.92;;
84121;SDS011;74217;51.106;17.084;2024-03-29T01:07:32;4.95;;;4.28;;
84121;SDS011;74217;51.106;17.084;2024-03-29T01:10:17;4.22;;;3.53;;
84121;SDS011;74217;51.106;17.084;2024-03-29T01:13:02;5.32;;;4.82;;
84121;SDS011;74217;51.106;17.084;2024-03-29T01:15:47;4.72;;;4.32;;
84121;SDS011;74217;51.106;17.084;2024-03-29T01:18:31;5.50;;;5.00;;
84121;SDS011;74217;51.106;17.084;2024-03-29T01:21:17;5.35;;;4.65;;
84121;SDS011;74217;51.106;17.084;2024-03-29T01:24:03;4.63;;;3.80;;
84121;SDS011;74217;51.106;17.084;2024-03-29T01:26:48;5.15;;;4.75;;
84121;SDS011;74217;51.106;17.084;2024-03-29T01:29:33;5.00;;;4.60;;
84121;SDS011;74217;51.106;17.084;2024-03-29T01:32:17;4.80;;;4.40;;
84121;SDS011;74217;51.106;17.084;2024-03-29T01:35:03;3.97;;;3.53;;
84121;SDS011;74217;51.106;17.084;2024-03-29T01:37:48;5.85;;;5.25;;
84121;SDS011;74217;51.106;17.084;2024-03-29T01:40:33;7.28;;;6.00;;
84121;SDS011;74217;51.106;17.084;2024-03-29T01:43:18;4.50;;;4.10;;
84121;SDS011;74217;51.106;17.084;2024-03-29T01:46:03;5.03;;;4.57;;
84121;SDS011;74217;51.106;17.084;2024-03-29T01:48:51;5.03;;;4.50;;
84121;SDS011;74217;51.106;17.084;2024-03-29T01:51:37;4.55;;;4.15;;
84121;SDS011;74217;51.106;17.084;2024-03-29T01:54:25;4.88;;;4.38;;
84121;SDS011;74217;51.106;17.084;2024-03-29T01:57:10;4.35;;;3.95;;
84121;SDS011;74217;51.106;17.084;2024-03-29T01:59:57;3.97;;;3.60;;
84121;SDS011;74217;51.106;17.084;2024-03-29T02:02:42;4.63;;;4.32;;
84121;SDS011;74217;51.106;17.084;2024-03-29T02:05:27;10.13;;;9.55;;
84121;SDS011;74217;51.106;17.084;2024-03-29T02:08:12;4.22;;;3.83;;
84121;SDS011;74217;51.106;17.084;2024-03-29T02:10:58;6.63;;;4.57;;
84121;SDS011;74217;51.106;17.084;2024-03-29T02:13:43;4.95;;;4.55;;
84121;SDS011;74217;51.106;17.084;2024-03-29T02:16:29;4.50;;;3.92;;
84121;SDS011;74217;51.106;17.084;2024-03-29T02:19:14;4.22;;;3.80;;
84121;SDS011;74217;51.106;17.084;2024-03-29T02:21:59;4.60;;;4.20;;
84121;SDS011;74217;51.106;17.084;2024-03-29T02:24:46;4.70;;;4.30;;
84121;SDS011;74217;51.106;17.084;2024-03-29T02:27:30;5.75;;;5.03;;
84121;SDS011;74217;51.106;17.084;2024-03-29T02:30:15;4.13;;;3.83;;
84121;SDS011;74217;51.106;17.084;2024-03-29T02:33:01;4.88;;;4.35;;
84121;SDS011;74217;51.106;17.084;2024-03-29T02:35:47;3.90;;;3.60;;
84121;SDS011;74217;51.106;17.084;2024-03-29T02:38:32;3.60;;;3.30;;
84121;SDS011;74217;51.106;17.084;2024-03-29T02:41:17;6.28;;;5.90;;
84121;SDS011;74217;51.106;17.084;2024-03-29T02:44:01;6.40;;;4.18;;
84121;SDS011;74217;51.106;17.084;2024-03-29T02:46:46;4.93;;;4.45;;
84121;SDS011;74217;51.106;17.084;2024-03-29T02:49:30;4.28;;;3.88;;
84121;SDS011;74217;51.106;17.084;2024-03-29T02:52:15;6.75;;;6.32;;
84121;SDS011;74217;51.106;17.084;2024-03-29T02:55:00;5.22;;;4.72;;
84121;SDS011;74217;51.106;17.084;2024-03-29T02:57:45;4.05;;;3.72;;
84121;SDS011;74217;51.106;17.084;2024-03-29T03:00:30;5.50;;;5.03;;
84121;SDS011;74217;51.106;17.084;2024-03-29T03:03:15;4.70;;;4.30;;
84121;SDS011;74217;51.106;17.084;2024-03-29T03:06:01;5.63;;;5.13;;
84121;SDS011;74217;51.106;17.084;2024-03-29T03:08:50;5.25;;;4.75;;
84121;SDS011;74217;51.106;17.084;2024-03-29T03:11:53;6.03;;;5.53;;
84121;SDS011;74217;51.106;17.084;2024-03-29T03:14:37;5.20;;;3.70;;
84121;SDS011;74217;51.106;17.084;2024-03-29T03:17:43;5.43;;;4.93;;
84121;SDS011;74217;51.106;17.084;2024-03-29T03:20:28;4.32;;;3.92;;
84121;SDS011;74217;51.106;17.084;2024-03-29T03:23:14;5.22;;;4.72;;
84121;SDS011;74217;51.106;17.084;2024-03-29T03:26:00;4.35;;;3.95;;
84121;SDS011;74217;51.106;17.084;2024-03-29T03:28:49;5.45;;;4.05;;
84121;SDS011;74217;51.106;17.084;2024-03-29T03:31:34;3.67;;;3.30;;
84121;SDS011;74217;51.106;17.084;2024-03-29T03:34:18;4.70;;;4.20;;
84121;SDS011;74217;51.106;17.084;2024-03-29T03:37:03;5.28;;;4.80;;
84121;SDS011;74217;51.106;17.084;2024-03-29T03:39:48;5.00;;;4.50;;
84121;SDS011;74217;51.106;17.084;2024-03-29T03:42:32;5.28;;;4.78;;
84121;SDS011;74217;51.106;17.084;2024-03-29T03:45:17;4.60;;;4.15;;
84121;SDS011;74217;51.106;17.084;2024-03-29T03:48:05;4.88;;;4.38;;
84121;SDS011;74217;51.106;17.084;2024-03-29T03:50:51;5.35;;;4.28;;
84121;SDS011;74217;51.106;17.084;2024-03-29T03:53:35;4.47;;;3.45;;
84121;SDS011;74217;51.106;17.084;2024-03-29T03:56:20;7.50;;;4.38;;
84121;SDS011;74217;51.106;17.084;2024-03-29T03:59:05;5.47;;;4.55;;
84121;SDS011;74217;51.106;17.084;2024-03-29T04:04:39;5.32;;;4.00;;
84121;SDS011;74217;51.106;17.084;2024-03-29T04:07:24;5.40;;;3.70;;
84121;SDS011;74217;51.106;17.084;2024-03-29T04:10:09;3.85;;;3.50;;
84121;SDS011;74217;51.106;17.084;2024-03-29T04:12:54;4.03;;;3.67;;
84121;SDS011;74217;51.106;17.084;2024-03-29T04:15:40;3.88;;;3.30;;
84121;SDS011;74217;51.106;17.084;2024-03-29T04:18:24;4.78;;;4.35;;
84121;SDS011;74217;51.106;17.084;2024-03-29T04:21:08;7.55;;;3.80;;
84121;SDS011;74217;51.106;17.084;2024-03-29T04:23:53;4.20;;;3.60;;
84121;SDS011;74217;51.106;17.084;2024-03-29T04:26:38;7.07;;;4.07;;
84121;SDS011;74217;51.106;17.084;2024-03-29T04:29:23;4.15;;;3.72;;
84121;SDS011;74217;51.106;17.084;2024-03-29T04:32:08;4.18;;;3.63;;
84121;SDS011;74217;51.106;17.084;2024-03-29T04:34:53;3.92;;;3.28;;
84121;SDS011;74217;51.106;17.084;2024-03-29T04:37:38;4.75;;;3.78;;
84121;SDS011;74217;51.106;17.084;2024-03-29T04:40:23;5.70;;;4.00;;
84121;SDS011;74217;51.106;17.084;2024-03-29T04:43:07;4.15;;;3.28;;
84121;SDS011;74217;51.106;17.084;2024-03-29T04:46:12;7.20;;;3.92;;
84121;SDS011;74217;51.106;17.084;2024-03-29T04:48:57;5.10;;;4.35;;
84121;SDS011;74217;51.106;17.084;2024-03-29T04:51:43;5.10;;;4.60;;
84121;SDS011;74217;51.106;17.084;2024-03-29T04:54:28;4.90;;;4.50;;
84121;SDS011;74217;51.106;17.084;2024-03-29T04:57:12;5.70;;;3.95;;
84121;SDS011;74217;51.106;17.084;2024-03-29T04:59:57;6.25;;;4.53;;
84121;SDS011;74217;51.106;17.084;2024-03-29T05:02:43;4.35;;;3.53;;
84121;SDS011;74217;51.106;17.084;2024-03-29T05:05:27;5.25;;;4.70;;
84121;SDS011;74217;51.106;17.084;2024-03-29T05:08:11;6.20;;;4.13;;
84121;SDS011;74217;51.106;17.084;2024-03-29T05:10:56;7.38;;;3.70;;
84121;SDS011;74217;51.106;17.084;2024-03-29T05:13:41;7.97;;;4.30;;
84121;SDS011;74217;51.106;17.084;2024-03-29T05:16:26;4.97;;;4.22;;
84121;SDS011;74217;51.106;17.084;2024-03-29T05:19:11;6.57;;;4.22;;
84121;SDS011;74217;51.106;17.084;2024-03-29T05:21:57;5.38;;;4.43;;
84121;SDS011;74217;51.106;17.084;2024-03-29T05:24:41;7.00;;;4.60;;
84121;SDS011;74217;51.106;17.084;2024-03-29T05:27:26;4.65;;;4.22;;
84121;SDS011;74217;51.106;17.084;2024-03-29T05:30:11;4.60;;;4.20;;
84121;SDS011;74217;51.106;17.084;2024-03-29T05:32:57;4.38;;;3.97;;
84121;SDS011;74217;51.106;17.084;2024-03-29T05:35:42;7.90;;;7.38;;
84121;SDS011;74217;51.106;17.084;2024-03-29T05:38:27;3.80;;;3.30;;
84121;SDS011;74217;51.106;17.084;2024-03-29T05:41:11;6.70;;;3.38;;
84121;SDS011;74217;51.106;17.084;2024-03-29T05:43:56;6.75;;;4.38;;
84121;SDS011;74217;51.106;17.084;2024-03-29T05:46:41;4.32;;;3.63;;
84121;SDS011;74217;51.106;17.084;2024-03-29T05:49:25;5.72;;;3.53;;
84121;SDS011;74217;51.106;17.084;2024-03-29T05:52:10;4.15;;;3.67;;
84121;SDS011;74217;51.106;17.084;2024-03-29T05:54:58;7.38;;;3.78;;
84121;SDS011;74217;51.106;17.084;2024-03-29T05:57:48;4.43;;;3.92;;
84121;SDS011;74217;51.106;17.084;2024-03-29T06:00:33;4.72;;;3.25;;
84121;SDS011;74217;51.106;17.084;2024-03-29T06:03:18;5.03;;;4.00;;
84121;SDS011;74217;51.106;17.084;2024-03-29T06:06:03;7.03;;;2.95;;
84121;SDS011;74217;51.106;17.084;2024-03-29T06:08:48;4.03;;;3.65;;
84121;SDS011;74217;51.106;17.084;2024-03-29T06:11:33;5.97;;;4.50;;
84121;SDS011;74217;51.106;17.084;2024-03-29T06:14:18;3.97;;;3.05;;
84121;SDS011;74217;51.106;17.084;2024-03-29T06:17:22;5.60;;;5.28;;
84121;SDS011;74217;51.106;17.084;2024-03-29T06:20:07;4.85;;;3.17;;
84121;SDS011;74217;51.106;17.084;2024-03-29T06:22:52;4.50;;;3.08;;
84121;SDS011;74217;51.106;17.084;2024-03-29T06:25:37;5.82;;;3.95;;
84121;SDS011;74217;51.106;17.084;2024-03-29T06:28:23;2.97;;;2.78;;
84121;SDS011;74217;51.106;17.084;2024-03-29T06:31:07;3.88;;;3.40;;
84121;SDS011;74217;51.106;17.084;2024-03-29T06:33:53;4.00;;;2.95;;
84121;SDS011;74217;51.106;17.084;2024-03-29T06:36:38;3.33;;;2.63;;
84121;SDS011;74217;51.106;17.084;2024-03-29T06:39:23;2.72;;;2.17;;
84121;SDS011;74217;51.106;17.084;2024-03-29T06:44:54;3.42;;;2.63;;
84121;SDS011;74217;51.106;17.084;2024-03-29T06:47:39;4.13;;;2.90;;
84121;SDS011;74217;51.106;17.084;2024-03-29T06:50:24;4.53;;;2.78;;
84121;SDS011;74217;51.106;17.084;2024-03-29T06:53:08;3.70;;;2.40;;
84121;SDS011;74217;51.106;17.084;2024-03-29T06:55:54;4.32;;;2.20;;
84121;SDS011;74217;51.106;17.084;2024-03-29T06:58:39;3.00;;;2.67;;
84121;SDS011;74217;51.106;17.084;2024-03-29T07:01:24;8.00;;;3.00;;
84121;SDS011;74217;51.106;17.084;2024-03-29T07:04:09;5.05;;;3.45;;
84121;SDS011;74217;51.106;17.084;2024-03-29T07:06:54;4.97;;;2.95;;
84121;SDS011;74217;51.106;17.084;2024-03-29T07:09:39;3.22;;;2.67;;
84121;SDS011;74217;51.106;17.084;2024-03-29T07:12:24;7.35;;;3.17;;
84121;SDS011;74217;51.106;17.084;2024-03-29T07:15:08;3.75;;;3.45;;
84121;SDS011;74217;51.106;17.084;2024-03-29T07:17:53;3.15;;;2.85;;
84121;SDS011;74217;51.106;17.084;2024-03-29T07:20:37;3.80;;;2.55;;
84121;SDS011;74217;51.106;17.084;2024-03-29T07:23:22;2.75;;;2.28;;
84121;SDS011;74217;51.106;17.084;2024-03-29T07:26:07;4.25;;;2.50;;
84121;SDS011;74217;51.106;17.084;2024-03-29T07:28:51;4.72;;;2.17;;
84121;SDS011;74217;51.106;17.084;2024-03-29T07:31:36;3.05;;;1.90;;
84121;SDS011;74217;51.106;17.084;2024-03-29T07:34:21;2.95;;;2.10;;
84121;SDS011;74217;51.106;17.084;2024-03-29T07:37:05;8.05;;;2.58;;
84121;SDS011;74217;51.106;17.084;2024-03-29T07:39:50;3.03;;;1.80;;
84121;SDS011;74217;51.106;17.084;2024-03-29T07:42:34;1.92;;;1.80;;
84121;SDS011;74217;51.106;17.084;2024-03-29T07:45:19;3.90;;;1.90;;
84121;SDS011;74217;51.106;17.084;2024-03-29T07:48:04;3.63;;;1.83;;
84121;SDS011;74217;51.106;17.084;2024-03-29T07:50:49;3.78;;;1.95;;
84121;SDS011;74217;51.106;17.084;2024-03-29T07:53:34;3.35;;;2.17;;
84121;SDS011;74217;51.106;17.084;2024-03-29T07:56:19;2.13;;;1.92;;
84121;SDS011;74217;51.106;17.084;2024-03-29T07:59:05;3.40;;;2.55;;
84121;SDS011;74217;51.106;17.084;2024-03-29T08:01:49;4.70;;;2.50;;
84121;SDS011;74217;51.106;17.084;2024-03-29T08:04:36;3.58;;;1.95;;
84121;SDS011;74217;51.106;17.084;2024-03-29T08:07:22;3.10;;;2.90;;
84121;SDS011;74217;51.106;17.084;2024-03-29T08:10:06;4.03;;;1.85;;
84121;SDS011;74217;51.106;17.084;2024-03-29T08:12:51;3.38;;;2.20;;
84121;SDS011;74217;51.106;17.084;2024-03-29T08:15:36;3.22;;;1.58;;
84121;SDS011;74217;51.106;17.084;2024-03-29T08:18:20;3.38;;;1.98;;
84121;SDS011;74217;51.106;17.084;2024-03-29T08:21:05;3.60;;;2.85;;
84121;SDS011;74217;51.106;17.084;2024-03-29T08:23:55;4.22;;;2.28;;
84121;SDS011;74217;51.106;17.084;2024-03-29T08:26:40;3.33;;;1.60;;
84121;SDS011;74217;51.106;17.084;2024-03-29T08:29:26;2.80;;;1.90;;
84121;SDS011;74217;51.106;17.084;2024-03-29T08:32:12;2.15;;;2.05;;
84121;SDS011;74217;51.106;17.084;2024-03-29T08:34:59;5.55;;;1.65;;
84121;SDS011;74217;51.106;17.084;2024-03-29T08:37:44;2.58;;;2.38;;
84121;SDS011;74217;51.106;17.084;2024-03-29T08:40:30;4.20;;;2.15;;
84121;SDS011;74217;51.106;17.084;2024-03-29T08:43:18;2.03;;;1.83;;
84121;SDS011;74217;51.106;17.084;2024-03-29T08:46:03;2.45;;;2.05;;
84121;SDS011;74217;51.106;17.084;2024-03-29T08:48:47;4.75;;;2.00;;
84121;SDS011;74217;51.106;17.084;2024-03-29T08:51:32;4.53;;;1.80;;
84121;SDS011;74217;51.106;17.084;2024-03-29T08:54:18;6.20;;;2.08;;
84121;SDS011;74217;51.106;17.084;2024-03-29T08:57:03;3.60;;;2.60;;
84121;SDS011;74217;51.106;17.084;2024-03-29T08:59:48;3.53;;;1.70;;
84121;SDS011;74217;51.106;17.084;2024-03-29T09:02:33;3.45;;;1.90;;
84121;SDS011;74217;51.106;17.084;2024-03-29T09:05:18;1.77;;;1.67;;
84121;SDS011;74217;51.106;17.084;2024-03-29T09:08:03;4.53;;;1.92;;
84121;SDS011;74217;51.106;17.084;2024-03-29T09:10:48;3.08;;;1.42;;
84121;SDS011;74217;51.106;17.084;2024-03-29T09:13:32;2.92;;;1.52;;
84121;SDS011;74217;51.106;17.084;2024-03-29T09:16:17;1.75;;;1.60;;
84121;SDS011;74217;51.106;17.084;2024-03-29T09:19:01;4.57;;;2.15;;
84121;SDS011;74217;51.106;17.084;2024-03-29T09:21:46;4.13;;;1.80;;
84121;SDS011;74217;51.106;17.084;2024-03-29T09:24:31;6.05;;;2.25;;
84121;SDS011;74217;51.106;17.084;2024-03-29T09:27:18;2.78;;;1.75;;
84121;SDS011;74217;51.106;17.084;2024-03-29T09:30:03;2.22;;;2.03;;
84121;SDS011;74217;51.106;17.084;2024-03-29T09:32:50;1.95;;;1.45;;
84121;SDS011;74217;51.106;17.084;2024-03-29T09:35:36;2.72;;;2.50;;
84121;SDS011;74217;51.106;17.084;2024-03-29T09:38:21;4.93;;;2.00;;
84121;SDS011;74217;51.106;17.084;2024-03-29T09:44:00;3.97;;;1.75;;
84121;SDS011;74217;51.106;17.084;2024-03-29T09:46:47;5.20;;;1.48;;
84121;SDS011;74217;51.106;17.084;2024-03-29T09:49:34;4.72;;;1.70;;
84121;SDS011;74217;51.106;17.084;2024-03-29T09:52:19;1.88;;;1.65;;
84121;SDS011;74217;51.106;17.084;2024-03-29T09:55:04;1.80;;;1.52;;
84121;SDS011;74217;51.106;17.084;2024-03-29T09:57:51;1.50;;;1.40;;
84121;SDS011;74217;51.106;17.084;2024-03-29T10:00:36;3.60;;;2.03;;
84121;SDS011;74217;51.106;17.084;2024-03-29T10:03:23;6.30;;;1.80;;
84121;SDS011;74217;51.106;17.084;2024-03-29T10:06:13;2.40;;;1.63;;
84121;SDS011;74217;51.106;17.084;2024-03-29T10:08:59;2.47;;;1.58;;
84121;SDS011;74217;51.106;17.084;2024-03-29T10:11:44;2.63;;;1.75;;
84121;SDS011;74217;51.106;17.084;2024-03-29T10:14:30;5.38;;;1.13;;
84121;SDS011;74217;51.106;17.084;2024-03-29T10:17:27;2.47;;;1.35;;
84121;SDS011;74217;51.106;17.084;2024-03-29T10:20:12;3.58;;;1.52;;
84121;SDS011;74217;51.106;17.084;2024-03-29T10:23:01;2.53;;;1.73;;
84121;SDS011;74217;51.106;17.084;2024-03-29T10:25:47;3.20;;;1.40;;
84121;SDS011;74217;51.106;17.084;2024-03-29T10:28:35;2.40;;;1.38;;
84121;SDS011;74217;51.106;17.084;2024-03-29T10:31:21;4.72;;;1.80;;
84121;SDS011;74217;51.106;17.084;2024-03-29T10:34:05;2.97;;;1.80;;
84121;SDS011;74217;51.106;17.084;2024-03-29T10:36:50;2.35;;;1.67;;
84121;SDS011;74217;51.106;17.084;2024-03-29T10:39:35;3.78;;;1.50;;
84121;SDS011;74217;51.106;17.084;2024-03-29T10:42:20;6.15;;;1.50;;
84121;SDS011;74217;51.106;17.084;2024-03-29T10:45:07;1.45;;;1.30;;
84121;SDS011;74217;51.106;17.084;2024-03-29T10:47:53;1.95;;;1.25;;
84121;SDS011;74217;51.106;17.084;2024-03-29T10:50:38;1.65;;;1.52;;
84121;SDS011;74217;51.106;17.084;2024-03-29T10:53:25;4.22;;;1.90;;
84121;SDS011;74217;51.106;17.084;2024-03-29T10:58:56;1.58;;;1.30;;
84121;SDS011;74217;51.106;17.084;2024-03-29T11:01:45;4.15;;;1.88;;
84121;SDS011;74217;51.106;17.084;2024-03-29T11:04:37;1.85;;;1.40;;
84121;SDS011;74217;51.106;17.084;2024-03-29T11:07:23;4.10;;;1.38;;
84121;SDS011;74217;51.106;17.084;2024-03-29T11:10:13;2.53;;;1.30;;
84121;SDS011;74217;51.106;17.084;2024-03-29T11:15:54;1.65;;;1.33;;
84121;SDS011;74217;51.106;17.084;2024-03-29T11:18:38;3.38;;;1.60;;
84121;SDS011;74217;51.106;17.084;2024-03-29T11:21:23;11.63;;;2.08;;
84121;SDS011;74217;51.106;17.084;2024-03-29T11:24:12;6.07;;;1.70;;
84121;SDS011;74217;51.106;17.084;2024-03-29T11:26:57;6.60;;;1.58;;
84121;SDS011;74217;51.106;17.084;2024-03-29T11:29:42;3.53;;;1.90;;
84121;SDS011;74217;51.106;17.084;2024-03-29T11:32:35;2.50;;;1.33;;
84121;SDS011;74217;51.106;17.084;2024-03-29T11:35:22;4.53;;;1.58;;
84121;SDS011;74217;51.106;17.084;2024-03-29T11:38:08;2.28;;;1.42;;
84121;SDS011;74217;51.106;17.084;2024-03-29T11:40:53;6.55;;;1.50;;
84121;SDS011;74217;51.106;17.084;2024-03-29T11:43:39;2.53;;;1.38;;
84121;SDS011;74217;51.106;17.084;2024-03-29T11:46:26;2.53;;;1.30;;
84121;SDS011;74217;51.106;17.084;2024-03-29T11:52:04;1.98;;;1.30;;
84121;SDS011;74217;51.106;17.084;2024-03-29T11:54:50;2.35;;;1.60;;
84121;SDS011;74217;51.106;17.084;2024-03-29T11:57:35;2.35;;;1.30;;
84121;SDS011;74217;51.106;17.084;2024-03-29T12:00:24;1.95;;;1.52;;
84121;SDS011;74217;51.106;17.084;2024-03-29T12:03:14;1.85;;;1.25;;
84121;SDS011;74217;51.106;17.084;2024-03-29T12:06:00;3.50;;;1.73;;
84121;SDS011;74217;51.106;17.084;2024-03-29T12:08:49;5.32;;;1.65;;
84121;SDS011;74217;51.106;17.084;2024-03-29T12:11:36;3.03;;;1.08;;
84121;SDS011;74217;51.106;17.084;2024-03-29T12:14:21;1.60;;;1.50;;
84121;SDS011;74217;51.106;17.084;2024-03-29T12:17:10;2.25;;;1.25;;
84121;SDS011;74217;51.106;17.084;2024-03-29T12:19:58;3.55;;;1.60;;
84121;SDS011;74217;51.106;17.084;2024-03-29T12:22:49;3.53;;;1.48;;
84121;SDS011;74217;51.106;17.084;2024-03-29T12:25:35;1.90;;;1.40;;
84121;SDS011;74217;51.106;17.084;2024-03-29T12:28:21;3.33;;;1.67;;
84121;SDS011;74217;51.106;17.084;2024-03-29T12:31:08;1.85;;;1.33;;
84121;SDS011;74217;51.106;17.084;2024-03-29T12:33:54;2.20;;;1.58;;
84121;SDS011;74217;51.106;17.084;2024-03-29T12:36:39;1.50;;;1.30;;
84121;SDS011;74217;51.106;17.084;2024-03-29T12:39:24;2.20;;;1.30;;
84121;SDS011;74217;51.106;17.084;2024-03-29T12:42:10;1.23;;;1.10;;
84121;SDS011;74217;51.106;17.084;2024-03-29T12:44:55;3.72;;;1.55;;
84121;SDS011;74217;51.106;17.084;2024-03-29T12:47:40;1.38;;;1.00;;
84121;SDS011;74217;51.106;17.084;2024-03-29T12:50:26;1.70;;;1.55;;
84121;SDS011;74217;51.106;17.084;2024-03-29T12:53:12;1.50;;;1.40;;
84121;SDS011;74217;51.106;17.084;2024-03-29T12:55:59;1.17;;;1.10;;
84121;SDS011;74217;51.106;17.084;2024-03-29T12:58:44;2.20;;;1.50;;
84121;SDS011;74217;51.106;17.084;2024-03-29T13:01:29;4.47;;;1.50;;
84121;SDS011;74217;51.106;17.084;2024-03-29T13:04:13;1.60;;;1.50;;
84121;SDS011;74217;51.106;17.084;2024-03-29T13:06:58;1.88;;;1.50;;
84121;SDS011;74217;51.106;17.084;2024-03-29T13:09:43;1.33;;;1.23;;
84121;SDS011;74217;51.106;17.084;2024-03-29T13:12:29;3.15;;;1.75;;
84121;SDS011;74217;51.106;17.084;2024-03-29T13:15:25;2.75;;;1.48;;
84121;SDS011;74217;51.106;17.084;2024-03-29T13:18:11;2.08;;;1.52;;
84121;SDS011;74217;51.106;17.084;2024-03-29T13:20:57;3.03;;;1.75;;
84121;SDS011;74217;51.106;17.084;2024-03-29T13:23:46;2.17;;;1.30;;
84121;SDS011;74217;51.106;17.084;2024-03-29T13:26:30;1.88;;;1.25;;
84121;SDS011;74217;51.106;17.084;2024-03-29T13:29:16;2.22;;;1.50;;
84121;SDS011;74217;51.106;17.084;2024-03-29T13:32:00;3.30;;;1.48;;
84121;SDS011;74217;51.106;17.084;2024-03-29T13:34:45;2.22;;;1.70;;
84121;SDS011;74217;51.106;17.084;2024-03-29T13:37:29;3.85;;;1.70;;
84121;SDS011;74217;51.106;17.084;2024-03-29T13:40:14;1.33;;;1.23;;
84121;SDS011;74217;51.106;17.084;2024-03-29T13:43:00;3.05;;;1.65;;
84121;SDS011;74217;51.106;17.084;2024-03-29T13:45:45;1.77;;;1.33;;
84121;SDS011;74217;51.106;17.084;2024-03-29T13:48:29;1.65;;;1.40;;
84121;SDS011;74217;51.106;17.084;2024-03-29T13:51:14;2.53;;;1.85;;
84121;SDS011;74217;51.106;17.084;2024-03-29T13:53:59;1.45;;;1.30;;
84121;SDS011;74217;51.106;17.084;2024-03-29T13:56:44;2.05;;;1.40;;
84121;SDS011;74217;51.106;17.084;2024-03-29T13:59:28;3.55;;;1.80;;
84121;SDS011;74217;51.106;17.084;2024-03-29T14:02:17;3.72;;;1.95;;
84121;SDS011;74217;51.106;17.084;2024-03-29T14:05:03;1.40;;;1.30;;
84121;SDS011;74217;51.106;17.084;2024-03-29T14:07:48;2.22;;;1.45;;
84121;SDS011;74217;51.106;17.084;2024-03-29T14:10:34;2.10;;;1.30;;
84121;SDS011;74217;51.106;17.084;2024-03-29T14:13:20;1.73;;;1.40;;
84121;SDS011;74217;51.106;17.084;2024-03-29T14:16:04;2.15;;;1.63;;
84121;SDS011;74217;51.106;17.084;2024-03-29T14:18:49;1.67;;;1.27;;
84121;SDS011;74217;51.106;17.084;2024-03-29T14:21:33;1.30;;;1.20;;
84121;SDS011;74217;51.106;17.084;2024-03-29T14:24:18;1.73;;;1.45;;
84121;SDS011;74217;51.106;17.084;2024-03-29T14:27:03;1.83;;;1.42;;
84121;SDS011;74217;51.106;17.084;2024-03-29T14:29:49;5.28;;;1.50;;
84121;SDS011;74217;51.106;17.084;2024-03-29T14:32:33;3.70;;;1.40;;
84121;SDS011;74217;51.106;17.084;2024-03-29T14:35:18;1.90;;;1.30;;
84121;SDS011;74217;51.106;17.084;2024-03-29T14:38:04;2.13;;;1.50;;
84121;SDS011;74217;51.106;17.084;2024-03-29T14:40:49;1.67;;;1.27;;
84121;SDS011;74217;51.106;17.084;2024-03-29T14:43:33;4.22;;;1.73;;
84121;SDS011;74217;51.106;17.084;2024-03-29T14:46:18;1.83;;;1.63;;
84121;SDS011;74217;51.106;17.084;2024-03-29T14:49:05;1.45;;;1.33;;
84121;SDS011;74217;51.106;17.084;2024-03-29T14:51:51;1.70;;;1.30;;
84121;SDS011;74217;51.106;17.084;2024-03-29T14:54:36;3.95;;;1.40;;
84121;SDS011;74217;51.106;17.084;2024-03-29T14:57:20;2.78;;;2.17;;
84121;SDS011;74217;51.106;17.084;2024-03-29T15:00:06;4.30;;;2.17;;
84121;SDS011;74217;51.106;17.084;2024-03-29T15:02:52;2.72;;;1.30;;
84121;SDS011;74217;51.106;17.084;2024-03-29T15:05:37;2.45;;;1.17;;
84121;SDS011;74217;51.106;17.084;2024-03-29T15:08:21;2.22;;;1.50;;
84121;SDS011;74217;51.106;17.084;2024-03-29T15:11:06;1.65;;;1.40;;
84121;SDS011;74217;51.106;17.084;2024-03-29T15:13:51;1.42;;;1.08;;
84121;SDS011;74217;51.106;17.084;2024-03-29T15:16:37;1.83;;;1.48;;
84121;SDS011;74217;51.106;17.084;2024-03-29T15:19:22;1.85;;;1.25;;
84121;SDS011;74217;51.106;17.084;2024-03-29T15:22:06;1.52;;;1.40;;
84121;SDS011;74217;51.106;17.084;2024-03-29T15:24:53;3.45;;;1.88;;
84121;SDS011;74217;51.106;17.084;2024-03-29T15:27:37;3.25;;;1.67;;
84121;SDS011;74217;51.106;17.084;2024-03-29T15:30:41;2.72;;;1.98;;
84121;SDS011;74217;51.106;17.084;2024-03-29T15:33:30;3.65;;;1.75;;
84121;SDS011;74217;51.106;17.084;2024-03-29T15:36:15;2.30;;;1.70;;
84121;SDS011;74217;51.106;17.084;2024-03-29T15:39:00;3.22;;;1.85;;
84121;SDS011;74217;51.106;17.084;2024-03-29T15:41:52;2.33;;;1.70;;
84121;SDS011;74217;51.106;17.084;2024-03-29T15:44:36;3.00;;;1.88;;
84121;SDS011;74217;51.106;17.084;2024-03-29T15:47:21;2.55;;;2.05;;
84121;SDS011;74217;51.106;17.084;2024-03-29T15:50:05;2.25;;;1.58;;
84121;SDS011;74217;51.106;17.084;2024-03-29T15:52:51;2.13;;;1.70;;
84121;SDS011;74217;51.106;17.084;2024-03-29T15:55:35;2.78;;;1.38;;
84121;SDS011;74217;51.106;17.084;2024-03-29T15:58:20;3.47;;;1.70;;
84121;SDS011;74217;51.106;17.084;2024-03-29T16:01:05;1.90;;;1.52;;
84121;SDS011;74217;51.106;17.084;2024-03-29T16:03:50;2.42;;;2.00;;
84121;SDS011;74217;51.106;17.084;2024-03-29T16:06:34;4.63;;;2.05;;
84121;SDS011;74217;51.106;17.084;2024-03-29T16:09:19;4.43;;;2.40;;
84121;SDS011;74217;51.106;17.084;2024-03-29T16:12:04;2.58;;;2.00;;
84121;SDS011;74217;51.106;17.084;2024-03-29T16:17:33;3.45;;;2.10;;
84121;SDS011;74217;51.106;17.084;2024-03-29T16:20:19;4.45;;;2.22;;
84121;SDS011;74217;51.106;17.084;2024-03-29T16:23:03;5.13;;;2.63;;
84121;SDS011;74217;51.106;17.084;2024-03-29T16:25:48;4.82;;;2.00;;
84121;SDS011;74217;51.106;17.084;2024-03-29T16:28:33;4.88;;;2.50;;
84121;SDS011;74217;51.106;17.084;2024-03-29T16:31:19;4.78;;;2.22;;
84121;SDS011;74217;51.106;17.084;2024-03-29T16:34:03;3.10;;;2.45;;
84121;SDS011;74217;51.106;17.084;2024-03-29T16:36:48;3.58;;;2.25;;
84121;SDS011;74217;51.106;17.084;2024-03-29T16:39:33;5.85;;;2.58;;
84121;SDS011;74217;51.106;17.084;2024-03-29T16:42:18;2.47;;;1.80;;
84121;SDS011;74217;51.106;17.084;2024-03-29T16:45:02;3.40;;;2.15;;
84121;SDS011;74217;51.106;17.084;2024-03-29T16:47:51;3.60;;;2.10;;
84121;SDS011;74217;51.106;17.084;2024-03-29T16:50:35;3.67;;;2.50;;